Time;durP1;ratioP1;P1;durP2;ratioP2;P2;SDS_P1;SDS_P2;PMS_P1;PMS_P2;Temp;Humidity;BMP_temperature;BMP_pressure;BME280_temperature;BME280_humidity;BME280_pressure;Samples;Min_cycle;Max_cycle;Signal;HPM_P1;HPM_P2
2022/08/16 00:02:00;;;;;;;1.92;1.83;;;27.20;62.10;;;;;;4996787;28;20429;-73
2022/08/16 00:04:26;;;;;;;3.58;2.05;;;27.20;62.20;;;;;;4996756;28;20041;-73
2022/08/16 00:06:52;;;;;;;2.28;1.77;;;27.20;62.20;;;;;;5013227;28;20587;-73
2022/08/16 00:09:17;;;;;;;6.47;2.38;;;27.20;62.20;;;;;;5014185;28;20109;-73
2022/08/16 00:11:43;;;;;;;2.08;1.70;;;27.20;62.20;;;;;;5014252;28;20018;-73
2022/08/16 00:14:11;;;;;;;3.60;2.00;;;27.20;62.20;;;;;;5012777;28;20022;-74
2022/08/16 00:16:36;;;;;;;3.25;2.10;;;27.10;62.20;;;;;;5012873;28;20465;-73
2022/08/16 00:19:03;;;;;;;3.30;2.10;;;27.20;62.40;;;;;;5013093;28;20033;-73
2022/08/16 00:21:29;;;;;;;3.40;1.90;;;27.20;62.30;;;;;;5013863;28;20065;-73
2022/08/16 00:23:54;;;;;;;4.28;1.80;;;27.20;62.40;;;;;;5012894;28;20496;-73
2022/08/16 00:26:20;;;;;;;3.42;2.10;;;27.20;62.50;;;;;;5013846;28;20457;-73
2022/08/16 00:28:46;;;;;;;2.53;2.00;;;27.20;62.40;;;;;;5013539;28;20053;-73
2022/08/16 00:31:11;;;;;;;2.60;1.95;;;27.10;62.40;;;;;;5031534;28;20077;-73
2022/08/16 00:33:37;;;;;;;3.63;1.70;;;27.10;62.30;;;;;;5032360;28;20113;-74
2022/08/16 00:36:03;;;;;;;2.65;2.10;;;27.10;62.40;;;;;;5033515;28;20021;-74
2022/08/16 00:38:28;;;;;;;2.67;1.80;;;27.10;62.40;;;;;;5022198;28;20045;-74
2022/08/16 00:40:54;;;;;;;3.80;1.90;;;27.10;62.40;;;;;;5013645;28;20057;-74
2022/08/16 00:43:28;;;;;;;4.00;2.00;;;27.20;62.30;;;;;;5012186;28;20084;-74
2022/08/16 00:45:58;;;;;;;3.35;1.90;;;27.10;62.30;;;;;;5012228;28;20115;-74
2022/08/16 00:48:24;;;;;;;2.42;1.85;;;27.10;62.30;;;;;;5012263;28;20022;-74
2022/08/16 00:50:49;;;;;;;2.30;2.03;;;27.10;62.30;;;;;;5012327;28;20041;-74
2022/08/16 00:53:15;;;;;;;2.15;1.80;;;27.10;62.40;;;;;;5013456;28;20104;-74
2022/08/16 00:55:47;;;;;;;2.78;1.90;;;27.10;62.30;;;;;;5012247;28;20112;-74
2022/08/16 00:58:13;;;;;;;;;;;27.10;62.40;;;;;;5012534;28;20033;-74
2022/08/16 01:00:39;;;;;;;2.63;1.80;;;27.10;62.30;;;;;;5045025;28;19909;-74
2022/08/16 01:03:07;;;;;;;4.43;2.00;;;27.10;62.40;;;;;;5012261;28;20105;-74
2022/08/16 01:05:32;;;;;;;4.70;1.92;;;27.10;62.30;;;;;;5013220;28;20592;-74
2022/08/16 01:07:58;;;;;;;3.63;1.73;;;27.10;62.30;;;;;;5012058;28;20096;-74
2022/08/16 01:10:25;;;;;;;3.33;2.20;;;27.00;62.20;;;;;;5013042;28;20025;-74
2022/08/16 01:12:51;;;;;;;3.15;2.15;;;27.10;62.30;;;;;;5011938;28;20026;-74
2022/08/16 01:15:16;;;;;;;3.50;1.88;;;27.10;62.40;;;;;;5012007;28;20084;-74
2022/08/16 01:17:42;;;;;;;1.58;1.48;;;27.10;62.30;;;;;;5011880;28;20030;-74
2022/08/16 01:20:09;;;;;;;1.95;1.75;;;27.10;62.40;;;;;;5011929;28;20427;-74
2022/08/16 01:23:06;;;;;;;1.98;1.80;;;27.00;62.40;;;;;;5011600;28;20060;-74
2022/08/16 01:25:34;;;;;;;1.77;1.67;;;27.00;62.20;;;;;;5010337;28;20049;-74
2022/08/16 01:28:01;;;;;;;3.30;1.85;;;27.00;62.40;;;;;;4978320;28;20026;-73
2022/08/16 01:30:35;;;;;;;3.13;1.60;;;27.10;63.60;;;;;;4989764;28;20042;-74
2022/08/16 01:33:03;;;;;;;2.35;1.67;;;27.10;62.60;;;;;;5030595;28;20021;-74
2022/08/16 01:35:58;;;;;;;2.17;1.83;;;27.10;62.60;;;;;;5013723;28;20034;-74
2022/08/16 01:38:29;;;;;;;1.70;1.60;;;27.00;62.60;;;;;;5003102;28;20112;-74
2022/08/16 01:41:03;;;;;;;5.17;2.00;;;27.10;62.80;;;;;;5010617;28;20026;-74
2022/08/16 01:43:30;;;;;;;4.43;1.80;;;27.00;62.80;;;;;;5010457;28;20279;-74
2022/08/16 01:45:56;;;;;;;2.70;1.90;;;27.00;62.80;;;;;;5010489;28;20025;-73
2022/08/16 01:48:24;;;;;;;3.40;1.65;;;27.00;62.70;;;;;;4994203;28;20092;-74
2022/08/16 01:50:50;;;;;;;2.50;1.77;;;27.00;62.80;;;;;;4994175;28;20496;-74
2022/08/16 01:53:16;;;;;;;2.92;1.80;;;27.00;62.80;;;;;;4994291;28;20034;-74
2022/08/16 01:55:44;;;;;;;6.03;1.70;;;27.00;62.80;;;;;;5010158;28;20500;-74
2022/08/16 01:58:10;;;;;;;4.10;2.05;;;27.00;62.70;;;;;;5010551;28;20040;-74
2022/08/16 02:00:36;;;;;;;3.08;1.90;;;27.00;62.80;;;;;;4993816;28;20022;-74
2022/08/16 02:03:03;;;;;;;1.88;1.70;;;27.00;62.80;;;;;;5012451;28;20552;-74
2022/08/16 02:05:29;;;;;;;1.80;1.70;;;27.00;62.90;;;;;;5012490;28;20028;-74
2022/08/16 02:07:56;;;;;;;3.60;2.08;;;27.00;62.90;;;;;;5011205;28;20026;-74
2022/08/16 02:10:22;;;;;;;1.80;1.70;;;27.00;62.80;;;;;;5012168;28;20025;-74
2022/08/16 02:12:48;;;;;;;2.40;1.80;;;27.00;62.90;;;;;;5012739;28;20014;-74
2022/08/16 02:15:14;;;;;;;2.20;1.83;;;27.00;62.90;;;;;;5015170;28;20018;-74
2022/08/16 02:17:40;;;;;;;2.20;2.00;;;27.00;63.00;;;;;;5014961;28;20033;-74
2022/08/16 02:20:07;;;;;;;3.50;1.85;;;27.00;63.10;;;;;;5016469;28;20025;-74
2022/08/16 02:22:34;;;;;;;2.35;1.73;;;27.00;63.10;;;;;;5031752;28;20036;-74
2022/08/16 02:24:59;;;;;;;2.72;1.80;;;27.00;63.20;;;;;;5031382;28;20022;-74
2022/08/16 02:27:25;;;;;;;1.85;1.73;;;27.00;63.10;;;;;;5015994;28;20045;-74
2022/08/16 02:29:50;;;;;;;1.90;1.70;;;27.00;63.10;;;;;;5022876;28;20028;-74
2022/08/16 02:32:16;;;;;;;5.47;1.63;;;27.00;63.00;;;;;;5035778;28;20048;-74
2022/08/16 02:34:43;;;;;;;1.80;1.70;;;27.00;63.10;;;;;;5034543;28;20423;-74
2022/08/16 02:37:09;;;;;;;2.22;1.90;;;27.00;63.00;;;;;;5033932;28;20028;-74
2022/08/16 02:39:34;;;;;;;3.67;1.75;;;27.00;63.00;;;;;;5014616;28;20030;-74
2022/08/16 02:42:01;;;;;;;3.58;1.77;;;27.00;63.00;;;;;;5015889;28;20087;-74
2022/08/16 02:44:26;;;;;;;1.60;1.50;;;27.00;63.00;;;;;;5015849;28;20104;-74
2022/08/16 02:46:52;;;;;;;3.25;1.90;;;27.00;63.00;;;;;;5014642;28;20106;-74
2022/08/16 02:49:18;;;;;;;1.98;1.60;;;27.00;63.00;;;;;;5014655;28;20377;-74
2022/08/16 02:51:43;;;;;;;1.95;1.85;;;27.00;63.00;;;;;;5015405;28;20030;-74
2022/08/16 02:54:09;;;;;;;2.80;1.70;;;26.90;63.00;;;;;;5014490;28;20022;-74
2022/08/16 02:56:35;;;;;;;2.33;1.73;;;27.00;63.00;;;;;;5014343;28;20552;-74
2022/08/16 02:59:01;;;;;;;1.83;1.55;;;27.00;63.00;;;;;;5015487;28;20118;-74
2022/08/16 03:01:29;;;;;;;1.65;1.55;;;26.90;62.90;;;;;;5014385;28;20058;-74
2022/08/16 03:03:55;;;;;;;1.60;1.50;;;26.90;62.90;;;;;;5014377;28;20391;-74
2022/08/16 03:06:21;;;;;;;2.88;1.50;;;26.90;62.90;;;;;;5014297;28;20406;-74
2022/08/16 03:08:47;;;;;;;1.70;1.60;;;26.90;62.90;;;;;;5013987;28;20022;-74
2022/08/16 03:11:13;;;;;;;2.22;1.90;;;26.90;62.90;;;;;;5014309;28;20156;-74
2022/08/16 03:13:39;;;;;;;8.50;2.28;;;26.90;62.80;;;;;;5014092;28;20506;-74
2022/08/16 03:16:05;;;;;;;2.40;1.75;;;26.90;62.90;;;;;;5015205;28;20025;-74
2022/08/16 03:18:30;;;;;;;5.18;1.65;;;26.90;62.90;;;;;;5013974;28;20026;-74
2022/08/16 03:20:58;;;;;;;2.67;1.70;;;26.90;62.90;;;;;;5013902;28;20029;-74
2022/08/16 03:23:24;;;;;;;1.80;1.70;;;26.90;62.90;;;;;;5015016;28;20065;-74
2022/08/16 03:25:50;;;;;;;3.40;1.80;;;26.90;62.90;;;;;;5012691;28;20492;-74
2022/08/16 03:28:15;;;;;;;1.83;1.60;;;26.90;62.90;;;;;;5014916;28;20022;-74
2022/08/16 03:30:41;;;;;;;1.63;1.50;;;26.90;62.90;;;;;;5027397;28;20083;-74
2022/08/16 03:33:06;;;;;;;1.60;1.50;;;26.90;62.90;;;;;;5034789;28;20025;-74
2022/08/16 03:35:33;;;;;;;4.53;1.67;;;26.90;62.90;;;;;;5034929;28;20034;-74
2022/08/16 03:38:00;;;;;;;3.72;1.92;;;26.90;62.90;;;;;;5025997;28;20026;-74
2022/08/16 03:40:26;;;;;;;2.42;1.67;;;26.90;62.90;;;;;;5013661;28;20116;-74
2022/08/16 03:42:52;;;;;;;1.88;1.45;;;26.90;62.90;;;;;;5014776;28;20101;-74
2022/08/16 03:45:18;;;;;;;1.67;1.58;;;26.90;62.90;;;;;;5013474;28;20476;-74
2022/08/16 03:47:45;;;;;;;3.28;1.50;;;26.90;62.90;;;;;;5013261;28;20022;-74
2022/08/16 03:50:11;;;;;;;3.45;1.70;;;26.90;62.80;;;;;;4997114;28;20385;-74
2022/08/16 03:52:37;;;;;;;1.52;1.42;;;26.90;62.90;;;;;;5014526;28;20032;-74
2022/08/16 03:55:03;;;;;;;1.70;1.60;;;26.90;62.80;;;;;;5013430;28;20022;-74
2022/08/16 03:57:29;;;;;;;2.25;1.35;;;26.90;62.90;;;;;;4996964;28;20400;-74
2022/08/16 03:59:55;;;;;;;2.67;1.77;;;26.90;62.90;;;;;;5013167;28;20022;-74
2022/08/16 04:02:21;;;;;;;2.63;1.70;;;26.90;62.90;;;;;;5013262;28;20029;-74
2022/08/16 04:04:47;;;;;;;2.45;1.88;;;26.90;62.90;;;;;;5013990;28;20064;-74
2022/08/16 04:07:13;;;;;;;2.58;1.50;;;26.90;62.90;;;;;;5012970;28;20021;-74
2022/08/16 04:09:39;;;;;;;1.65;1.55;;;26.90;62.90;;;;;;5013108;28;20381;-74
2022/08/16 04:12:05;;;;;;;1.60;1.50;;;26.90;62.90;;;;;;5013087;28;20503;-74
2022/08/16 04:14:31;;;;;;;1.85;1.75;;;26.90;62.80;;;;;;5012935;28;20034;-74
2022/08/16 04:16:56;;;;;;;2.00;1.50;;;26.80;62.80;;;;;;5014216;28;20030;-74
2022/08/16 04:19:24;;;;;;;1.90;1.50;;;26.90;62.90;;;;;;5012571;28;20034;-74
2022/08/16 04:21:50;;;;;;;1.70;1.60;;;26.90;62.90;;;;;;5013890;28;20488;-74
2022/08/16 04:24:16;;;;;;;2.80;1.70;;;26.90;62.80;;;;;;5014005;28;20034;-74
2022/08/16 04:26:41;;;;;;;5.07;1.55;;;26.90;62.90;;;;;;5013666;28;20026;-74
2022/08/16 04:29:07;;;;;;;2.00;1.67;;;26.90;62.90;;;;;;5013929;28;20033;-74
2022/08/16 04:31:32;;;;;;;1.90;1.65;;;26.80;62.80;;;;;;5033470;28;20419;-74
2022/08/16 04:33:59;;;;;;;9.35;1.83;;;26.90;62.90;;;;;;5033294;28;20107;-73
2022/08/16 04:36:28;;;;;;;3.20;1.60;;;26.80;62.90;;;;;;5032105;28;20033;-73
2022/08/16 04:38:55;;;;;;;5.78;1.45;;;26.80;62.70;;;;;;5016272;28;20056;-74
2022/08/16 04:41:21;;;;;;;17.02;1.75;;;26.90;62.70;;;;;;5032562;28;20022;-74
2022/08/16 04:43:47;;;;;;;3.13;1.58;;;26.80;62.70;;;;;;5032801;28;20107;-74
2022/08/16 04:46:13;;;;;;;4.65;1.70;;;26.80;62.50;;;;;;5032542;28;20056;-74
2022/08/16 04:48:40;;;;;;;6.38;1.80;;;26.80;62.70;;;;;;5033557;28;20053;-74
2022/08/16 04:51:07;;;;;;;7.85;2.00;;;26.80;62.70;;;;;;5033772;28;20031;-74
2022/08/16 04:53:32;;;;;;;3.58;1.98;;;26.80;62.70;;;;;;5032574;28;20096;-74
2022/08/16 04:55:59;;;;;;;2.83;1.75;;;26.80;62.80;;;;;;5033826;28;20164;-74
2022/08/16 04:58:25;;;;;;;3.17;2.03;;;26.80;62.80;;;;;;5032525;28;20052;-74
2022/08/16 05:00:50;;;;;;;3.60;1.50;;;26.80;62.90;;;;;;5032161;28;20024;-74
2022/08/16 05:03:16;;;;;;;3.05;1.60;;;26.80;62.80;;;;;;5033362;28;20033;-74
2022/08/16 05:05:42;;;;;;;2.85;1.60;;;26.80;62.90;;;;;;5033496;28;20109;-74
2022/08/16 05:08:10;;;;;;;2.17;1.63;;;26.80;62.80;;;;;;5033517;28;20109;-74
2022/08/16 05:10:35;;;;;;;5.05;1.92;;;26.80;62.90;;;;;;5032241;28;20021;-74
2022/08/16 05:13:01;;;;;;;5.25;1.40;;;26.80;62.90;;;;;;5032015;28;20349;-74
2022/08/16 05:15:27;;;;;;;4.85;1.42;;;26.80;62.90;;;;;;5015842;28;20431;-74
2022/08/16 05:17:53;;;;;;;4.50;1.90;;;26.80;62.90;;;;;;5015322;28;20033;-74
2022/08/16 05:20:19;;;;;;;7.75;1.80;;;26.80;62.90;;;;;;5015833;28;20017;-74
2022/08/16 05:22:45;;;;;;;1.60;1.50;;;26.80;62.90;;;;;;5031931;28;20025;-74
2022/08/16 05:25:11;;;;;;;4.28;1.48;;;26.80;62.80;;;;;;5032020;28;20384;-74
2022/08/16 05:27:37;;;;;;;1.92;1.75;;;26.80;62.90;;;;;;5013239;28;20029;-74
2022/08/16 05:30:04;;;;;;;1.95;1.60;;;26.80;62.90;;;;;;5032072;28;20021;-74
2022/08/16 05:32:29;;;;;;;2.65;1.60;;;26.80;62.90;;;;;;5030923;28;20021;-74
2022/08/16 05:34:55;;;;;;;2.97;1.88;;;26.80;62.90;;;;;;5031347;28;20018;-74
2022/08/16 05:37:23;;;;;;;1.92;1.50;;;26.80;62.90;;;;;;5031313;28;20038;-74
2022/08/16 05:39:49;;;;;;;4.25;1.60;;;26.80;62.90;;;;;;5032368;28;20032;-74
2022/08/16 05:42:14;;;;;;;2.63;1.70;;;26.80;62.90;;;;;;5031458;28;20057;-74
2022/08/16 05:44:40;;;;;;;7.20;1.55;;;26.80;62.90;;;;;;5031208;28;20472;-74
2022/08/16 05:47:06;;;;;;;3.55;1.50;;;26.70;62.80;;;;;;5031958;28;20030;-74
2022/08/16 05:49:31;;;;;;;1.90;1.40;;;26.70;62.80;;;;;;5032074;28;20029;-74
2022/08/16 05:51:58;;;;;;;3.28;1.77;;;26.70;62.80;;;;;;5031092;28;20033;-74
2022/08/16 05:54:25;;;;;;;3.70;1.73;;;26.70;62.80;;;;;;5032309;28;20017;-74
2022/08/16 05:56:50;;;;;;;4.22;1.52;;;26.80;63.00;;;;;;5032251;28;20041;-74
2022/08/16 05:59:16;;;;;;;4.63;1.60;;;26.70;62.80;;;;;;5014552;28;20030;-74
2022/08/16 06:01:45;;;;;;;5.28;1.48;;;26.70;62.80;;;;;;5030924;28;20072;-74
2022/08/16 06:04:12;;;;;;;4.07;1.67;;;26.70;62.80;;;;;;5031146;28;20052;-74
2022/08/16 06:06:37;;;;;;;3.95;1.50;;;26.70;62.80;;;;;;5030872;28;20113;-74
2022/08/16 06:09:03;;;;;;;3.70;1.50;;;26.70;62.80;;;;;;5031916;28;20101;-74
2022/08/16 06:11:29;;;;;;;2.28;1.38;;;26.70;62.90;;;;;;5031236;28;20053;-74
2022/08/16 06:13:54;;;;;;;1.88;1.77;;;26.70;62.90;;;;;;5030853;28;20022;-74
2022/08/16 06:16:20;;;;;;;2.80;1.50;;;26.70;62.80;;;;;;5032008;28;20414;-74
2022/08/16 06:18:46;;;;;;;2.95;1.63;;;26.70;63.80;;;;;;5032052;28;20017;-74
2022/08/16 06:21:12;;;;;;;3.05;1.70;;;26.70;62.80;;;;;;5030739;28;20025;-74
2022/08/16 06:23:37;;;;;;;6.38;2.03;;;26.70;62.80;;;;;;4998148;28;20025;-74
2022/08/16 06:26:04;;;;;;;3.42;1.52;;;26.70;62.80;;;;;;5030705;28;20026;-74
2022/08/16 06:28:30;;;;;;;2.08;1.38;;;26.70;62.90;;;;;;5030738;28;20017;-74
2022/08/16 06:30:55;;;;;;;2.00;1.75;;;26.70;62.80;;;;;;5030130;28;20057;-74
2022/08/16 06:33:21;;;;;;;2.47;1.70;;;26.70;62.80;;;;;;5030817;28;20029;-74
2022/08/16 06:35:48;;;;;;;1.65;1.50;;;26.70;62.80;;;;;;5031996;28;20028;-75
2022/08/16 06:38:13;;;;;;;2.45;1.63;;;26.70;62.90;;;;;;5021445;28;20033;-74
2022/08/16 06:40:39;;;;;;;1.48;1.27;;;26.70;62.80;;;;;;5011012;28;20030;-74
2022/08/16 06:43:05;;;;;;;5.90;1.67;;;26.70;62.80;;;;;;5011931;28;20121;-74
2022/08/16 06:45:31;;;;;;;2.65;1.80;;;26.70;62.80;;;;;;5010930;28;20639;-74
2022/08/16 06:47:56;;;;;;;1.63;1.52;;;26.70;62.90;;;;;;5011897;28;20120;-74
2022/08/16 06:50:22;;;;;;;2.63;1.63;;;26.70;62.80;;;;;;5012105;28;20058;-74
2022/08/16 06:52:48;;;;;;;1.73;1.50;;;26.70;62.90;;;;;;5012127;28;20107;-74
2022/08/16 06:55:14;;;;;;;5.88;1.55;;;26.70;62.90;;;;;;5011831;28;20021;-74
2022/08/16 06:57:40;;;;;;;2.20;1.40;;;26.70;63.00;;;;;;5011041;28;20058;-74
2022/08/16 07:00:12;;;;;;;3.60;1.50;;;26.70;62.90;;;;;;5012843;28;20463;-74
2022/08/16 07:02:41;;;;;;;3.53;1.90;;;26.70;63.00;;;;;;5014384;28;20022;-74
2022/08/16 07:05:07;;;;;;;1.50;1.40;;;26.70;63.00;;;;;;5014203;28;20030;-75
2022/08/16 07:07:33;;;;;;;2.03;1.67;;;26.60;62.90;;;;;;5015538;28;20026;-75
2022/08/16 07:09:59;;;;;;;3.17;1.63;;;26.60;62.90;;;;;;5014186;28;20425;-74
2022/08/16 07:12:25;;;;;;;2.53;1.65;;;26.70;63.10;;;;;;5015356;28;20100;-74
2022/08/16 07:14:50;;;;;;;11.35;1.40;;;26.70;63.00;;;;;;5013930;28;20055;-74
2022/08/16 07:17:18;;;;;;;5.80;1.70;;;26.60;63.00;;;;;;5013888;28;20030;-74
2022/08/16 07:19:43;;;;;;;4.88;1.67;;;26.60;63.00;;;;;;5014058;28;20022;-74
2022/08/16 07:22:09;;;;;;;8.00;2.05;;;26.60;63.00;;;;;;5013876;28;20030;-75
2022/08/16 07:24:35;;;;;;;1.50;1.40;;;26.60;62.40;;;;;;5014181;28;20053;-75
2022/08/16 07:27:01;;;;;;;3.85;1.80;;;26.60;59.80;;;;;;5013686;28;20512;-74
2022/08/16 07:29:27;;;;;;;3.13;1.60;;;26.50;60.10;;;;;;5017229;28;20053;-75
2022/08/16 07:31:52;;;;;;;1.95;1.65;;;26.50;60.30;;;;;;5034592;28;20075;-75
2022/08/16 07:34:18;;;;;;;2.65;1.75;;;26.50;60.50;;;;;;5033581;28;20019;-75
2022/08/16 07:36:44;;;;;;;1.77;1.60;;;26.40;60.70;;;;;;5033533;28;20103;-75
2022/08/16 07:39:11;;;;;;;2.75;1.38;;;26.40;60.60;;;;;;5016227;28;20519;-75
2022/08/16 07:41:37;;;;;;;2.15;1.60;;;26.40;60.50;;;;;;4997576;28;20474;-75
2022/08/16 07:44:03;;;;;;;2.38;1.60;;;26.40;60.30;;;;;;5018693;28;20014;-74
2022/08/16 07:46:29;;;;;;;3.72;1.75;;;26.40;60.50;;;;;;5037286;28;20043;-73
2022/08/16 07:48:54;;;;;;;2.05;1.48;;;26.40;60.50;;;;;;5064360;28;20017;-74
2022/08/16 07:51:20;;;;;;;3.83;1.60;;;26.30;60.40;;;;;;5064774;28;20013;-75
2022/08/16 07:53:50;;;;;;;2.13;1.77;;;26.30;60.40;;;;;;5064788;28;20514;-74
2022/08/16 07:56:19;;;;;;;4.18;2.30;;;26.30;60.40;;;;;;5032635;28;20436;-74
2022/08/16 07:58:45;;;;;;;2.55;1.92;;;26.30;60.40;;;;;;5064550;28;20128;-75
2022/08/16 08:01:12;;;;;;;2.58;1.60;;;26.30;60.40;;;;;;5046431;28;20025;-75
2022/08/16 08:03:38;;;;;;;1.80;1.70;;;26.30;60.30;;;;;;5064365;28;20100;-75
2022/08/16 08:06:03;;;;;;;3.65;1.67;;;26.30;60.30;;;;;;5064373;28;20053;-75
2022/08/16 08:08:29;;;;;;;3.30;1.60;;;26.30;60.30;;;;;;5034583;28;20052;-75
2022/08/16 08:10:55;;;;;;;3.38;1.65;;;26.20;60.20;;;;;;5035914;28;20053;-75
2022/08/16 08:13:21;;;;;;;2.08;1.67;;;26.20;60.20;;;;;;5032210;28;20017;-75
2022/08/16 08:15:47;;;;;;;3.13;1.55;;;26.20;60.10;;;;;;5064321;28;20471;-75
2022/08/16 08:18:13;;;;;;;1.98;1.80;;;26.20;60.20;;;;;;5032360;28;20029;-74
2022/08/16 08:20:43;;;;;;;2.50;1.80;;;26.20;60.10;;;;;;5046859;28;20037;-74
2022/08/16 08:23:10;;;;;;;2.30;2.00;;;26.20;60.20;;;;;;5061284;28;20510;-75
2022/08/16 08:25:36;;;;;;;16.77;3.80;;;26.20;60.30;;;;;;5046362;28;20032;-75
2022/08/16 08:28:02;;;;;;;14.88;4.50;;;26.20;60.40;;;;;;5032223;28;20029;-75
2022/08/16 08:30:28;;;;;;;10.38;3.67;;;26.20;60.60;;;;;;5032016;28;20049;-75
2022/08/16 08:32:54;;;;;;;8.23;3.05;;;26.20;60.50;;;;;;5033750;28;20032;-75
2022/08/16 08:35:20;;;;;;;10.27;3.67;;;26.20;60.50;;;;;;5032567;28;20022;-75
2022/08/16 08:37:45;;;;;;;9.05;3.92;;;26.20;60.50;;;;;;5026735;28;20370;-75
2022/08/16 08:40:11;;;;;;;17.15;4.32;;;26.10;60.50;;;;;;5013349;28;20408;-75
2022/08/16 08:42:38;;;;;;;8.85;3.67;;;26.10;60.40;;;;;;5012560;28;20030;-74
2022/08/16 08:45:04;;;;;;;8.82;3.63;;;26.10;60.40;;;;;;5012527;28;20540;-75
2022/08/16 08:47:30;;;;;;;16.80;3.92;;;26.10;60.50;;;;;;5013369;28;20104;-75
2022/08/16 08:49:57;;;;;;;9.43;4.05;;;26.10;60.40;;;;;;5012279;28;20025;-75
2022/08/16 08:52:23;;;;;;;12.00;4.00;;;26.10;60.50;;;;;;5011051;28;20033;-75
2022/08/16 08:54:49;;;;;;;14.93;4.03;;;26.10;60.50;;;;;;5012038;28;20030;-75
2022/08/16 08:57:17;;;;;;;11.85;4.10;;;26.10;60.50;;;;;;5012092;28;20435;-75
2022/08/16 08:59:45;;;;;;;12.20;4.38;;;26.10;60.40;;;;;;5012287;28;20585;-75
2022/08/16 09:02:11;;;;;;;12.82;4.05;;;26.10;60.50;;;;;;5012096;28;20071;-74
2022/08/16 09:04:37;;;;;;;9.75;4.30;;;26.10;60.50;;;;;;5012061;28;20080;-75
2022/08/16 09:07:03;;;;;;;15.88;4.38;;;26.00;60.50;;;;;;5013229;28;20022;-75
2022/08/16 09:09:28;;;;;;;11.73;4.32;;;26.10;60.50;;;;;;5013138;28;20026;-75
2022/08/16 09:11:55;;;;;;;14.00;4.43;;;26.10;60.50;;;;;;5012087;28;20028;-75
2022/08/16 09:14:21;;;;;;;14.30;4.50;;;26.00;60.50;;;;;;5011675;28;20101;-75
2022/08/16 09:16:46;;;;;;;12.75;4.35;;;26.00;60.50;;;;;;5013163;28;20105;-75
2022/08/16 09:19:12;;;;;;;13.20;3.95;;;26.00;60.40;;;;;;5011870;28;20060;-75
2022/08/16 09:21:37;;;;;;;12.00;4.07;;;26.00;60.50;;;;;;5011823;28;20447;-75
2022/08/16 09:24:04;;;;;;;14.68;4.72;;;26.00;60.50;;;;;;5010638;28;20150;-75
2022/08/16 09:26:29;;;;;;;10.45;3.63;;;26.00;60.50;;;;;;5012602;28;20373;-75
2022/08/16 09:28:56;;;;;;;13.10;4.10;;;26.00;60.50;;;;;;5013036;28;20025;-75
2022/08/16 09:31:23;;;;;;;8.52;3.88;;;26.00;60.50;;;;;;5030575;28;20117;-75
2022/08/16 09:33:49;;;;;;;10.60;4.22;;;26.00;60.50;;;;;;5031408;28;20400;-75
2022/08/16 09:36:15;;;;;;;12.88;4.68;;;26.00;60.50;;;;;;5031373;28;20053;-75
2022/08/16 09:38:41;;;;;;;9.63;4.10;;;26.00;60.50;;;;;;5019208;28;20153;-75
2022/08/16 09:41:09;;;;;;;9.88;4.57;;;26.00;60.50;;;;;;5011591;28;20441;-75
2022/08/16 09:43:35;;;;;;;10.93;4.28;;;26.00;60.50;;;;;;5011566;28;20057;-75
2022/08/16 09:46:01;;;;;;;12.55;4.57;;;25.90;60.50;;;;;;5011582;28;20511;-75
2022/08/16 09:48:27;;;;;;;12.02;4.25;;;26.00;60.50;;;;;;5011238;28;20029;-75
2022/08/16 09:50:53;;;;;;;10.57;4.32;;;25.90;60.50;;;;;;5012752;28;20069;-75
2022/08/16 09:53:21;;;;;;;11.77;4.63;;;25.90;60.50;;;;;;5012409;28;20033;-75
2022/08/16 09:55:49;;;;;;;9.45;4.13;;;25.90;60.50;;;;;;5011499;28;20022;-75
2022/08/16 09:58:14;;;;;;;11.27;4.13;;;25.90;60.50;;;;;;5011398;28;20053;-75
2022/08/16 10:00:40;;;;;;;11.80;4.53;;;25.90;60.50;;;;;;5012475;28;20065;-75
2022/08/16 10:03:06;;;;;;;11.23;4.80;;;25.90;60.50;;;;;;5011382;28;20033;-75
2022/08/16 10:05:34;;;;;;;8.77;4.00;;;25.90;60.50;;;;;;5012559;28;20540;-75
2022/08/16 10:08:00;;;;;;;8.98;3.58;;;25.90;61.50;;;;;;5010971;28;20113;-75
2022/08/16 10:10:25;;;;;;;9.32;3.70;;;25.90;60.50;;;;;;5012364;28;20097;-75
2022/08/16 10:15:35;;;;;;;8.98;3.63;;;25.90;60.50;;;;;;5012549;28;20430;-75
2022/08/16 10:18:06;;;;;;;8.25;3.67;;;25.90;60.50;;;;;;5011161;28;20504;-75
2022/08/16 10:20:33;;;;;;;8.20;4.05;;;25.90;60.40;;;;;;5011040;28;20026;-75
2022/08/16 10:22:59;;;;;;;5.97;3.67;;;25.90;60.50;;;;;;5011145;28;20026;-75
2022/08/16 10:25:24;;;;;;;7.82;3.30;;;25.90;60.50;;;;;;5012027;28;20080;-75
2022/08/16 10:27:50;;;;;;;6.60;3.70;;;25.90;60.40;;;;;;5011094;28;20511;-75
2022/08/16 10:30:16;;;;;;;6.38;3.75;;;25.90;60.30;;;;;;5022524;28;20160;-76
2022/08/16 10:32:42;;;;;;;9.27;3.85;;;25.90;60.40;;;;;;5030732;28;20412;-75
2022/08/16 10:35:07;;;;;;;7.40;3.35;;;25.90;60.40;;;;;;5034487;28;20028;-75
2022/08/16 10:37:33;;;;;;;5.55;3.28;;;25.90;60.40;;;;;;5030607;28;20059;-75
2022/08/16 10:40:00;;;;;;;6.70;3.05;;;25.90;60.30;;;;;;5014852;28;20034;-74
2022/08/16 10:42:26;;;;;;;5.60;3.00;;;25.90;60.30;;;;;;5015814;28;20060;-75
2022/08/16 10:44:52;;;;;;;5.53;2.90;;;25.90;60.20;;;;;;5014842;28;20430;-75
2022/08/16 10:47:17;;;;;;;8.23;3.25;;;25.90;60.30;;;;;;5015740;28;20034;-75
2022/08/16 10:49:43;;;;;;;5.60;3.13;;;25.90;60.20;;;;;;5015712;28;20033;-75
2022/08/16 10:52:09;;;;;;;6.35;3.00;;;25.80;60.00;;;;;;5015695;28;20077;-75
2022/08/16 10:54:35;;;;;;;6.95;2.97;;;25.80;60.00;;;;;;5015722;28;20014;-75
2022/08/16 10:57:02;;;;;;;6.57;2.85;;;25.80;60.10;;;;;;5014465;28;20117;-75
2022/08/16 10:59:31;;;;;;;5.97;2.60;;;25.90;60.00;;;;;;5014453;28;20025;-75
2022/08/16 11:01:58;;;;;;;5.00;2.70;;;25.80;60.00;;;;;;5014518;28;20022;-75
2022/08/16 11:04:25;;;;;;;6.45;2.95;;;25.80;60.00;;;;;;5014448;28;20046;-75
2022/08/16 11:06:51;;;;;;;6.57;2.90;;;25.80;59.90;;;;;;5015488;28;20030;-75
2022/08/16 11:09:16;;;;;;;6.57;2.80;;;25.80;60.00;;;;;;5014126;28;20026;-75
2022/08/16 11:11:42;;;;;;;5.88;2.67;;;25.80;60.00;;;;;;5015312;28;20033;-75
2022/08/16 11:14:08;;;;;;;4.88;2.40;;;25.80;60.00;;;;;;5014380;28;20072;-75
2022/08/16 11:16:33;;;;;;;6.45;3.05;;;25.80;60.00;;;;;;5013953;28;20021;-74
2022/08/16 11:18:59;;;;;;;6.20;2.92;;;25.80;60.00;;;;;;5015558;28;20511;-74
2022/08/16 11:21:25;;;;;;;5.70;3.03;;;25.80;59.90;;;;;;5013704;28;20048;-74
2022/08/16 11:23:54;;;;;;;5.40;2.88;;;25.80;59.90;;;;;;5015250;28;20021;-75
2022/08/16 11:26:21;;;;;;;4.30;2.55;;;25.80;59.90;;;;;;5013856;28;20017;-74
2022/08/16 11:28:49;;;;;;;5.35;2.88;;;25.80;60.00;;;;;;5013817;28;20029;-74
2022/08/16 11:31:15;;;;;;;5.80;2.72;;;25.80;60.00;;;;;;5032157;28;20132;-74
2022/08/16 11:33:41;;;;;;;4.40;2.78;;;25.80;60.00;;;;;;5034771;28;20059;-74
2022/08/16 11:36:07;;;;;;;3.13;2.17;;;25.80;59.90;;;;;;5034682;28;20030;-75
2022/08/16 11:38:32;;;;;;;4.43;2.30;;;25.80;59.80;;;;;;5021438;28;20037;-74
2022/08/16 11:40:59;;;;;;;4.75;2.70;;;25.80;59.80;;;;;;5015024;28;20034;-75
2022/08/16 11:43:35;;;;;;;6.03;2.67;;;25.80;59.70;;;;;;5013573;28;20022;-74
2022/08/16 11:46:03;;;;;;;6.15;2.60;;;25.80;59.70;;;;;;5013962;28;20018;-74
2022/08/16 11:48:29;;;;;;;3.85;2.28;;;25.80;59.70;;;;;;5013168;28;20025;-74
2022/08/16 11:50:55;;;;;;;4.10;2.10;;;25.80;59.70;;;;;;5013439;28;20076;-74
2022/08/16 11:53:22;;;;;;;4.07;2.35;;;25.70;59.60;;;;;;5013139;28;20026;-74
2022/08/16 11:55:48;;;;;;;3.88;2.35;;;25.80;59.60;;;;;;4997063;28;20424;-74
2022/08/16 11:58:13;;;;;;;5.93;2.60;;;25.80;59.60;;;;;;5014611;28;20022;-74
2022/08/16 12:00:41;;;;;;;4.70;2.08;;;25.70;59.60;;;;;;5014359;28;20087;-74
2022/08/16 12:03:06;;;;;;;3.67;2.20;;;25.80;59.50;;;;;;5013064;28;20030;-74
2022/08/16 12:05:32;;;;;;;3.95;2.10;;;25.70;59.50;;;;;;5013157;28;20033;-74
2022/08/16 12:07:58;;;;;;;4.00;2.35;;;25.80;59.60;;;;;;5012944;28;20025;-75
2022/08/16 12:10:24;;;;;;;3.35;1.95;;;25.70;59.50;;;;;;5013034;28;20026;-74
2022/08/16 12:12:50;;;;;;;3.03;2.17;;;25.70;59.40;;;;;;5013182;28;20014;-74
2022/08/16 12:15:16;;;;;;;5.80;2.13;;;25.70;59.50;;;;;;5014198;28;20037;-74
2022/08/16 12:17:42;;;;;;;3.65;2.28;;;25.70;59.40;;;;;;5012588;28;20026;-75
2022/08/16 12:20:13;;;;;;;4.15;2.33;;;25.70;59.40;;;;;;5014350;28;20112;-74
2022/08/16 12:22:38;;;;;;;4.50;2.40;;;25.70;59.40;;;;;;5013853;28;20060;-75
2022/08/16 12:25:06;;;;;;;4.10;2.22;;;25.70;59.50;;;;;;5013875;28;20484;-74
2022/08/16 12:27:31;;;;;;;4.20;2.53;;;25.70;59.60;;;;;;5014008;28;20036;-74
2022/08/16 12:29:57;;;;;;;3.13;2.15;;;25.70;59.80;;;;;;5021544;28;20543;-74
2022/08/16 12:32:23;;;;;;;3.90;2.00;;;25.70;59.80;;;;;;5032223;28;20112;-74
2022/08/16 12:34:48;;;;;;;3.15;2.40;;;25.70;60.10;;;;;;5032333;28;20415;-74
2022/08/16 12:37:15;;;;;;;3.90;2.42;;;25.70;60.00;;;;;;5032216;28;20042;-74
2022/08/16 12:39:41;;;;;;;5.85;2.40;;;25.70;60.20;;;;;;5013714;28;20058;-75
2022/08/16 12:42:08;;;;;;;4.10;2.53;;;25.70;60.20;;;;;;5012577;28;20080;-74
2022/08/16 12:44:35;;;;;;;4.82;2.50;;;25.70;60.20;;;;;;5013565;28;20050;-74